createdAt,value
2023-01-18T00:00:51.136Z,97030.13
2023-01-18T00:03:18.552Z,97015.81
2023-01-18T00:05:45.576Z,97012.59
2023-01-18T00:08:14.368Z,97014.72
2023-01-18T00:10:42.370Z,97014.34
2023-01-18T00:13:16.623Z,97011.03
2023-01-18T00:15:44.646Z,97007.47
2023-01-18T00:18:12.681Z,97006.69
2023-01-18T00:20:40.086Z,97004.28
2023-01-18T00:23:13.113Z,97006.28
2023-01-18T00:25:41.071Z,97005.47
2023-01-18T00:28:07.993Z,96995.69
2023-01-18T00:30:41.694Z,96997.31
2023-01-18T00:33:09.593Z,96992.81
2023-01-18T00:35:38.521Z,96982.81
2023-01-18T00:38:07.541Z,96978.84
2023-01-18T00:40:34.413Z,96980.22
2023-01-18T00:43:19.759Z,96981.13
2023-01-18T00:45:47.835Z,96972.63
2023-01-18T00:48:16.717Z,96977.69
2023-01-18T00:50:44.822Z,96968.13
2023-01-18T00:53:17.877Z,96964.88
2023-01-18T00:55:44.750Z,96972.75
2023-01-18T00:58:11.676Z,96980.91
2023-01-18T01:00:39.097Z,96963.75
2023-01-18T01:03:05.919Z,96974.03
2023-01-18T01:05:52.596Z,96978.03
2023-01-18T01:08:21.815Z,96975.41
2023-01-18T01:10:50.253Z,96984.22
2023-01-18T01:13:39.686Z,96969.16
2023-01-18T01:16:26.590Z,96973.88
2023-01-18T01:19:12.985Z,96954.41
2023-01-18T01:21:59.009Z,96962.69
2023-01-18T01:24:45.172Z,96946.00
2023-01-18T01:27:12.619Z,96952.97
2023-01-18T01:29:39.811Z,96949.66
2023-01-18T01:32:06.988Z,96950.75
2023-01-18T01:34:33.927Z,96957.66
2023-01-18T01:37:00.850Z,96949.75
2023-01-18T01:39:27.805Z,96953.81
2023-01-18T01:41:54.707Z,96958.88
2023-01-18T01:44:21.588Z,96963.03
2023-01-18T01:46:52.815Z,96962.41
2023-01-18T01:49:37.229Z,96965.94
2023-01-18T01:52:11.758Z,96974.50
2023-01-18T01:54:44.592Z,96970.69
2023-01-18T01:57:22.467Z,96975.59
2023-01-18T01:59:55.099Z,96975.91
2023-01-18T02:02:22.290Z,96984.34
2023-01-18T02:04:53.965Z,96973.91
2023-01-18T02:07:21.794Z,96985.72
2023-01-18T02:09:50.103Z,96987.63
2023-01-18T02:12:17.962Z,96981.72
2023-01-18T02:14:44.905Z,96982.69
2023-01-18T02:17:31.994Z,96972.59
2023-01-18T02:20:19.851Z,96968.22
2023-01-18T02:22:53.875Z,96981.72
2023-01-18T02:25:24.425Z,96981.63
2023-01-18T02:28:18.752Z,96984.00
2023-01-18T02:31:12.420Z,96977.97
2023-01-18T02:33:59.750Z,96978.03
2023-01-18T02:36:33.311Z,96967.31
2023-01-18T02:39:23.855Z,96969.53
2023-01-18T02:42:17.294Z,96963.34
2023-01-18T02:45:04.812Z,96962.03
2023-01-18T02:47:33.407Z,96967.31
2023-01-18T02:50:02.544Z,96960.56
2023-01-18T02:52:41.902Z,96973.59
2023-01-18T02:55:25.197Z,96972.91
2023-01-18T02:57:56.432Z,96971.84
2023-01-18T03:00:24.511Z,96977.59
2023-01-18T03:02:52.287Z,96966.88
2023-01-18T03:05:21.674Z,96961.03
2023-01-18T03:07:55.367Z,96961.19
2023-01-18T03:10:24.566Z,96961.81
2023-01-18T03:13:00.609Z,96958.59
2023-01-18T03:15:33.928Z,96953.38
2023-01-18T03:18:27.703Z,96957.75
2023-01-18T03:20:56.911Z,96955.22
2023-01-18T03:23:40.972Z,96939.09
2023-01-18T03:26:10.324Z,96948.19
2023-01-18T03:28:58.171Z,96943.81
2023-01-18T03:31:47.845Z,96931.00
2023-01-18T03:34:33.506Z,96919.59
2023-01-18T03:37:05.328Z,96918.13
2023-01-18T03:39:51.982Z,96905.78
2023-01-18T03:42:27.088Z,96906.78
2023-01-18T03:44:54.167Z,96905.47
2023-01-18T03:47:21.262Z,96906.78
2023-01-18T03:49:48.159Z,96893.28
2023-01-18T03:52:16.899Z,96874.28
2023-01-18T03:54:54.494Z,96866.56
2023-01-18T03:57:30.016Z,96860.88
2023-01-18T03:59:58.594Z,96855.22
2023-01-18T04:02:27.016Z,96836.53
2023-01-18T04:04:57.785Z,96815.38
2023-01-18T04:07:28.481Z,96830.16
2023-01-18T04:09:57.990Z,96870.94
2023-01-18T04:12:34.689Z,96886.53
2023-01-18T04:15:02.040Z,96901.94
2023-01-18T04:17:29.058Z,96914.59
2023-01-18T04:19:55.956Z,96922.31
2023-01-18T04:22:22.959Z,96927.38
2023-01-18T04:24:49.820Z,96922.03
2023-01-18T04:27:19.351Z,96912.00
2023-01-18T04:29:46.291Z,96908.78
2023-01-18T04:32:13.511Z,96923.47
2023-01-18T04:34:40.708Z,96909.00
2023-01-18T04:37:07.761Z,96904.78
2023-01-18T04:39:35.097Z,96894.22
2023-01-18T04:42:02.112Z,96892.69
2023-01-18T04:44:28.977Z,96890.59
2023-01-18T04:46:56.120Z,96892.97
2023-01-18T04:49:24.463Z,96877.66
2023-01-18T04:51:53.513Z,96872.69
2023-01-18T04:54:20.345Z,96871.53
2023-01-18T04:56:48.313Z,96867.34
2023-01-18T04:59:17.379Z,96872.00
2023-01-18T05:01:44.504Z,96885.47
2023-01-18T05:04:11.915Z,96891.53
2023-01-18T05:06:39.377Z,96882.88
2023-01-18T05:09:06.695Z,96877.91
2023-01-18T05:11:42.589Z,96872.69
2023-01-18T05:14:10.020Z,96865.84
2023-01-18T05:16:37.188Z,96870.59
2023-01-18T05:19:04.289Z,96871.38
2023-01-18T05:21:31.601Z,96881.25
2023-01-18T05:23:59.874Z,96870.31
2023-01-18T05:26:28.062Z,96863.94
2023-01-18T05:29:01.175Z,96875.16
2023-01-18T05:31:29.209Z,96868.47
2023-01-18T05:33:59.628Z,96862.03
2023-01-18T05:36:26.603Z,96858.81
2023-01-18T05:38:55.001Z,96866.88
2023-01-18T05:41:23.038Z,96882.72
2023-01-18T05:43:52.172Z,96877.91
2023-01-18T05:46:19.584Z,96866.56
2023-01-18T05:48:46.396Z,96870.00
2023-01-18T05:51:14.138Z,96863.25
2023-01-18T05:53:43.519Z,96864.50
2023-01-18T05:56:10.907Z,96861.66
2023-01-18T05:58:38.624Z,96865.81
2023-01-18T06:01:06.629Z,96876.44
2023-01-18T06:03:33.507Z,96878.97
2023-01-18T06:06:01.017Z,96882.50
2023-01-18T06:08:28.346Z,96879.28
2023-01-18T06:10:56.367Z,96884.56
2023-01-18T06:13:24.069Z,96870.91
2023-01-18T06:15:52.200Z,96862.81
2023-01-18T06:18:19.622Z,96864.63
2023-01-18T06:20:46.963Z,96867.22
2023-01-18T06:23:15.059Z,96886.94
2023-01-18T06:25:42.406Z,96878.13
2023-01-18T06:28:11.367Z,96877.34
2023-01-18T06:30:38.416Z,96874.75
2023-01-18T06:33:07.207Z,96869.25
2023-01-18T06:35:34.557Z,96880.94
2023-01-18T06:38:04.252Z,96883.03
2023-01-18T06:40:32.462Z,96886.84
2023-01-18T06:43:00.519Z,96887.50
2023-01-18T06:45:29.672Z,96885.19
2023-01-18T06:47:56.760Z,96897.06
2023-01-18T06:50:23.581Z,96889.69
2023-01-18T06:52:52.057Z,96889.16
2023-01-18T06:55:20.049Z,96895.88
2023-01-18T06:57:49.299Z,96906.72
2023-01-18T07:00:23.012Z,96907.69
2023-01-18T07:02:51.323Z,96910.53
2023-01-18T07:05:19.549Z,96904.25
2023-01-18T07:07:48.698Z,96909.09
2023-01-18T07:10:16.863Z,96903.25
2023-01-18T07:12:49.054Z,96912.53
2023-01-18T07:15:22.763Z,96915.97
2023-01-18T07:17:51.363Z,96902.66
2023-01-18T07:20:20.184Z,96906.50
2023-01-18T07:22:50.986Z,96905.25
2023-01-18T07:25:20.953Z,96910.16
2023-01-18T07:27:49.342Z,96910.88
2023-01-18T07:30:17.179Z,96920.88
2023-01-18T07:32:49.646Z,96915.44
2023-01-18T07:35:22.325Z,96909.25
2023-01-18T07:37:51.220Z,96904.78
2023-01-18T07:40:18.474Z,96915.91
2023-01-18T07:42:45.847Z,96904.63
2023-01-18T07:45:14.220Z,96909.69
2023-01-18T07:47:43.645Z,96909.16
2023-01-18T07:50:11.003Z,96900.44
2023-01-18T07:52:39.189Z,96899.19
2023-01-18T07:55:06.974Z,96903.09
2023-01-18T07:57:36.268Z,96909.84
2023-01-18T08:00:04.379Z,96904.94
2023-01-18T08:02:31.262Z,96904.41
2023-01-18T08:04:58.637Z,96903.31
2023-01-18T08:07:26.139Z,96901.25
2023-01-18T08:09:53.095Z,96908.72
2023-01-18T08:12:20.477Z,96904.63
2023-01-18T08:14:48.905Z,96916.72
2023-01-18T08:17:16.842Z,96926.97
2023-01-18T08:19:44.892Z,96920.59
2023-01-18T08:22:11.765Z,96926.41
2023-01-18T08:24:38.742Z,96943.88
2023-01-18T08:27:05.628Z,96954.97
2023-01-18T08:29:32.642Z,96946.78
2023-01-18T08:32:01.005Z,96944.09
2023-01-18T08:34:28.002Z,96945.81
2023-01-18T08:36:56.028Z,96943.28
2023-01-18T08:39:22.957Z,96940.50
2023-01-18T08:41:56.048Z,96944.66
2023-01-18T08:44:24.155Z,96956.31
2023-01-18T08:46:51.465Z,96972.53
2023-01-18T08:49:18.367Z,96974.16
2023-01-18T08:51:45.396Z,96987.38
2023-01-18T08:54:19.025Z,96989.38
2023-01-18T08:56:46.411Z,96997.34
2023-01-18T08:59:13.369Z,96995.50
2023-01-18T09:01:41.405Z,96997.38
2023-01-18T09:04:09.369Z,96997.84
2023-01-18T09:06:38.387Z,96996.91
2023-01-18T09:09:05.752Z,96996.91
2023-01-18T09:11:32.696Z,96980.41
2023-01-18T09:14:12.971Z,96987.88
2023-01-18T09:16:40.016Z,96999.97
2023-01-18T09:19:07.520Z,97008.72
2023-01-18T09:21:35.652Z,97009.69
2023-01-18T09:24:02.975Z,97007.66
2023-01-18T09:26:31.369Z,97002.28
2023-01-18T09:28:58.776Z,97003.75
2023-01-18T09:31:29.137Z,97000.91
2023-01-18T09:34:00.987Z,97001.69
2023-01-18T09:36:41.603Z,97003.31
2023-01-18T09:39:08.542Z,97004.44
2023-01-18T09:41:40.212Z,97010.50
2023-01-18T09:44:10.093Z,97009.78
2023-01-18T09:46:38.868Z,97012.09
2023-01-18T09:49:18.951Z,97012.28
2023-01-18T09:52:04.670Z,97014.13
2023-01-18T09:54:35.794Z,97014.28
2023-01-18T09:57:14.396Z,97021.28
2023-01-18T09:59:41.436Z,97018.66
2023-01-18T10:02:17.333Z,97028.34
2023-01-18T10:04:46.829Z,97035.06
2023-01-18T10:07:17.146Z,97029.75
2023-01-18T10:09:47.133Z,97028.91
2023-01-18T10:12:32.795Z,97037.91
2023-01-18T10:15:05.090Z,97029.97
2023-01-18T10:17:38.524Z,97023.13
2023-01-18T10:20:16.972Z,97021.25
2023-01-18T10:22:51.223Z,97024.25
2023-01-18T10:25:34.794Z,97027.06
2023-01-18T10:28:25.518Z,97034.88
2023-01-18T10:31:04.040Z,97032.16
2023-01-18T10:33:35.446Z,97030.59
2023-01-18T10:36:13.869Z,97030.88
2023-01-18T10:38:41.723Z,97039.75
2023-01-18T10:41:29.665Z,97030.59
2023-01-18T10:43:56.939Z,97044.38
2023-01-18T10:46:24.081Z,97045.88
2023-01-18T10:48:52.258Z,97053.69
2023-01-18T10:51:35.816Z,97061.63
2023-01-18T10:54:32.286Z,97064.94
2023-01-18T10:57:06.871Z,97072.19
2023-01-18T10:59:40.216Z,97080.84
2023-01-18T11:02:19.979Z,97080.78
2023-01-18T11:04:55.914Z,97087.19
2023-01-18T11:07:27.313Z,97088.50
2023-01-18T11:09:55.926Z,97087.19
2023-01-18T11:12:37.770Z,97091.09
2023-01-18T11:15:14.303Z,97082.91
2023-01-18T11:17:43.112Z,97085.22
2023-01-18T11:20:17.866Z,97082.97
2023-01-18T11:22:56.510Z,97094.69
2023-01-18T11:25:26.184Z,97091.09
2023-01-18T11:27:53.212Z,97096.25
2023-01-18T11:30:21.525Z,97097.88
2023-01-18T11:32:52.101Z,97096.19
2023-01-18T11:35:36.644Z,97103.81
2023-01-18T11:38:09.070Z,97106.91
2023-01-18T11:40:37.327Z,97111.00
2023-01-18T11:43:10.330Z,97120.84
2023-01-18T11:46:09.866Z,97123.66
2023-01-18T11:48:49.236Z,97121.81
2023-01-18T11:51:22.894Z,97115.63
2023-01-18T11:54:04.637Z,97119.34
2023-01-18T11:56:31.653Z,97131.25
2023-01-18T11:58:58.824Z,97129.00
2023-01-18T12:01:51.600Z,97134.28
2023-01-18T12:04:18.783Z,97131.25
2023-01-18T12:06:56.419Z,97132.66
2023-01-18T12:09:42.327Z,97147.56
2023-01-18T12:12:19.639Z,97137.03
2023-01-18T12:15:08.435Z,97153.63
2023-01-18T12:18:11.783Z,97158.78
2023-01-18T12:20:54.032Z,97155.13
2023-01-18T12:23:30.465Z,97155.47
2023-01-18T12:26:12.131Z,97158.56
2023-01-18T12:28:39.757Z,97161.84
2023-01-18T12:31:24.864Z,97170.22
2023-01-18T12:34:21.977Z,97172.25
2023-01-18T12:37:03.468Z,97178.88
2023-01-18T12:39:52.394Z,97186.97
2023-01-18T12:42:28.630Z,97195.19
2023-01-18T12:45:08.041Z,97191.09
2023-01-18T12:47:39.661Z,97202.91
2023-01-18T12:50:23.167Z,97203.81
2023-01-18T12:52:53.129Z,97208.78
2023-01-18T12:55:23.305Z,97218.28
2023-01-18T12:58:01.042Z,97232.13
2023-01-18T13:00:35.811Z,97235.16
2023-01-18T13:03:04.932Z,97246.19
2023-01-18T13:05:43.471Z,97250.84
2023-01-18T13:08:14.911Z,97257.41
2023-01-18T13:10:42.064Z,97260.69
2023-01-18T13:13:13.238Z,97270.25
2023-01-18T13:15:48.390Z,97276.16
2023-01-18T13:18:16.228Z,97278.03
2023-01-18T13:20:49.945Z,97289.50
2023-01-18T13:23:26.836Z,97290.22
2023-01-18T13:26:12.100Z,97299.72
2023-01-18T13:28:46.568Z,97307.41
2023-01-18T13:31:30.610Z,97316.19
2023-01-18T13:33:58.325Z,97325.00
2023-01-18T13:36:28.591Z,97326.88
2023-01-18T13:39:04.115Z,97336.13
2023-01-18T13:41:31.293Z,97346.81
2023-01-18T13:43:59.483Z,97348.00
2023-01-18T13:46:30.031Z,97357.25
2023-01-18T13:49:00.530Z,97357.66
2023-01-18T13:51:31.803Z,97368.06
2023-01-18T13:53:59.926Z,97371.84
2023-01-18T13:56:31.740Z,97380.91
2023-01-18T13:59:18.730Z,97386.03
2023-01-18T14:01:49.296Z,97390.84
2023-01-18T14:04:33.771Z,97400.09
2023-01-18T14:07:05.538Z,97404.16
2023-01-18T14:09:43.782Z,97410.41
2023-01-18T14:12:13.381Z,97421.38
2023-01-18T14:14:56.293Z,97429.91
2023-01-18T14:17:25.488Z,97426.19
2023-01-18T14:20:11.263Z,97423.97
2023-01-18T14:22:46.782Z,97437.13
2023-01-18T14:25:26.833Z,97436.47
2023-01-18T14:28:04.399Z,97431.91
2023-01-18T14:30:33.345Z,97440.53
2023-01-18T14:33:03.617Z,97435.75
2023-01-18T14:35:30.667Z,97441.56
2023-01-18T14:38:18.477Z,97458.28
2023-01-18T14:40:51.608Z,97459.09
2023-01-18T14:43:38.786Z,97448.06
2023-01-18T14:46:07.021Z,97468.16
2023-01-18T14:48:36.537Z,97466.31
2023-01-18T14:51:07.244Z,97464.88
2023-01-18T14:53:46.422Z,97461.94
2023-01-18T14:56:24.685Z,97483.81
2023-01-18T14:59:16.469Z,97477.25
2023-01-18T15:01:54.514Z,97484.03
2023-01-18T15:04:24.176Z,97492.78
2023-01-18T15:06:59.376Z,97497.59
2023-01-18T15:09:28.277Z,97498.22
2023-01-18T15:11:56.955Z,97497.28
2023-01-18T15:14:45.118Z,97504.88
2023-01-18T15:17:24.511Z,97513.66
2023-01-18T15:20:00.007Z,97528.47
2023-01-18T15:22:30.267Z,97538.81
2023-01-18T15:24:58.991Z,97543.06
2023-01-18T15:27:28.527Z,97554.53
2023-01-18T15:29:55.859Z,97551.22
2023-01-18T15:32:23.920Z,97556.84
2023-01-18T15:34:52.233Z,97570.94
2023-01-18T15:37:25.205Z,97564.47
2023-01-18T15:39:58.552Z,97569.22
2023-01-18T15:42:28.344Z,97573.00
2023-01-18T15:44:58.328Z,97575.09
2023-01-18T15:47:26.556Z,97585.91
2023-01-18T15:49:54.798Z,97586.88
2023-01-18T15:52:39.832Z,97588.81
2023-01-18T15:55:14.566Z,97595.75
2023-01-18T15:57:42.198Z,97598.38
2023-01-18T16:00:25.330Z,97600.81
2023-01-18T16:02:55.077Z,97599.91
2023-01-18T16:05:24.394Z,97599.81
2023-01-18T16:08:00.985Z,97599.31
2023-01-18T16:10:32.155Z,97611.00
2023-01-18T16:13:19.913Z,97619.84
2023-01-18T16:16:00.495Z,97619.22
2023-01-18T16:18:28.046Z,97617.25
2023-01-18T16:20:57.918Z,97624.22
2023-01-18T16:23:25.957Z,97631.00
2023-01-18T16:26:03.477Z,97629.31
2023-01-18T16:28:30.485Z,97626.03
2023-01-18T16:31:00.181Z,97631.59
2023-01-18T16:33:27.368Z,97644.56
2023-01-18T16:35:54.564Z,97645.59
2023-01-18T16:38:22.194Z,97637.94
2023-01-18T16:40:50.796Z,97651.31
2023-01-18T16:43:32.903Z,97669.31
2023-01-18T16:46:02.423Z,97678.25
2023-01-18T16:48:31.306Z,97671.72
2023-01-18T16:51:01.495Z,97687.69
2023-01-18T16:53:29.560Z,97686.84
2023-01-18T16:55:57.436Z,97692.41
2023-01-18T16:58:24.650Z,97693.59
2023-01-18T17:00:55.700Z,97695.25
2023-01-18T17:03:23.574Z,97689.97
2023-01-18T17:05:53.407Z,97699.53
2023-01-18T17:08:22.640Z,97705.34
2023-01-18T17:10:56.059Z,97714.81
2023-01-18T17:13:24.527Z,97725.38
2023-01-18T17:15:52.395Z,97727.97
2023-01-18T17:18:27.693Z,97731.88
2023-01-18T17:20:55.684Z,97736.63
2023-01-18T17:23:23.365Z,97743.28
2023-01-18T17:25:50.953Z,97737.66
2023-01-18T17:28:19.129Z,97733.97
2023-01-18T17:30:49.371Z,97750.91
2023-01-18T17:33:18.918Z,97745.38
2023-01-18T17:35:47.619Z,97740.69
2023-01-18T17:38:23.242Z,97746.22
2023-01-18T17:40:53.983Z,97751.47
2023-01-18T17:43:32.677Z,97750.78
2023-01-18T17:46:05.077Z,97764.84
2023-01-18T17:48:32.639Z,97770.25
2023-01-18T17:51:00.025Z,97782.66
2023-01-18T17:53:27.936Z,97789.41
2023-01-18T17:55:55.707Z,97796.28
2023-01-18T17:58:25.388Z,97811.38
2023-01-18T18:00:53.365Z,97813.56
2023-01-18T18:03:21.111Z,97815.78
2023-01-18T18:05:57.710Z,97823.06
2023-01-18T18:08:26.731Z,97815.56
2023-01-18T18:10:54.828Z,97817.72
2023-01-18T18:13:23.164Z,97819.19
2023-01-18T18:15:56.739Z,97822.06
2023-01-18T18:18:30.893Z,97822.84
2023-01-18T18:21:02.836Z,97823.28
2023-01-18T18:23:32.755Z,97833.47
2023-01-18T18:26:02.147Z,97828.50
2023-01-18T18:28:30.933Z,97827.97
2023-01-18T18:31:00.041Z,97823.66
2023-01-18T18:33:31.173Z,97819.47
2023-01-18T18:36:02.121Z,97819.66
2023-01-18T18:38:37.732Z,97821.38
2023-01-18T18:41:06.855Z,97816.53
2023-01-18T18:43:36.270Z,97817.66
2023-01-18T18:46:05.144Z,97824.56
2023-01-18T18:48:36.865Z,97818.50
2023-01-18T18:51:05.648Z,97820.09
2023-01-18T18:53:38.600Z,97821.84
2023-01-18T18:56:10.285Z,97835.06
2023-01-18T18:58:41.061Z,97838.50
2023-01-18T19:01:17.732Z,97846.66
2023-01-18T19:03:45.413Z,97855.94
2023-01-18T19:06:13.472Z,97851.13
2023-01-18T19:08:41.274Z,97859.41
2023-01-18T19:11:12.154Z,97867.38
2023-01-18T19:13:40.453Z,97869.31
2023-01-18T19:16:10.558Z,97880.34
2023-01-18T19:18:38.702Z,97878.66
2023-01-18T19:21:09.330Z,97877.44
2023-01-18T19:23:39.000Z,97877.88
2023-01-18T19:26:06.996Z,97879.91
2023-01-18T19:28:36.884Z,97895.50
2023-01-18T19:31:08.359Z,97910.53
2023-01-18T19:33:36.469Z,97917.69
2023-01-18T19:36:09.245Z,97931.59
2023-01-18T19:38:45.868Z,97930.91
2023-01-18T19:41:19.953Z,97939.59
2023-01-18T19:43:50.207Z,97952.69
2023-01-18T19:46:17.966Z,97954.75
2023-01-18T19:48:56.584Z,97954.50
2023-01-18T19:51:24.794Z,97955.28
2023-01-18T19:53:57.192Z,97956.97
2023-01-18T19:56:29.882Z,97954.69
2023-01-18T19:58:58.321Z,97958.16
2023-01-18T20:01:36.439Z,97955.13
2023-01-18T20:04:07.033Z,97963.81
2023-01-18T20:06:36.451Z,97957.97
2023-01-18T20:09:12.619Z,97950.22
2023-01-18T20:11:48.724Z,97940.56
2023-01-18T20:14:18.045Z,97939.97
2023-01-18T20:16:46.383Z,97939.16
2023-01-18T20:19:15.933Z,97942.81
2023-01-18T20:21:45.248Z,97946.13
2023-01-18T20:24:19.871Z,97959.41
2023-01-18T20:26:51.372Z,97960.69
2023-01-18T20:29:19.103Z,97964.53
2023-01-18T20:31:50.264Z,97966.22
2023-01-18T20:34:27.695Z,97970.41
2023-01-18T20:36:55.469Z,97960.25
2023-01-18T20:39:24.188Z,97961.25
2023-01-18T20:41:53.033Z,97969.16
2023-01-18T20:44:21.910Z,97960.34
2023-01-18T20:46:51.675Z,97968.69
2023-01-18T20:49:37.360Z,97968.13
2023-01-18T20:52:06.215Z,97961.41
2023-01-18T20:54:36.273Z,97971.19
2023-01-18T20:57:04.919Z,97963.44
2023-01-18T20:59:32.543Z,97968.63
2023-01-18T21:02:01.138Z,97976.41
2023-01-18T21:04:29.168Z,97978.16
2023-01-18T21:06:58.473Z,97967.69
2023-01-18T21:09:28.203Z,97970.81
2023-01-18T21:11:55.768Z,97980.38
2023-01-18T21:14:23.267Z,97995.16
2023-01-18T21:16:51.191Z,97994.22
2023-01-18T21:19:19.230Z,98009.50
2023-01-18T21:21:46.742Z,98017.59
2023-01-18T21:24:14.174Z,98017.75
2023-01-18T21:26:41.637Z,98017.00
2023-01-18T21:29:08.788Z,98022.59
2023-01-18T21:31:38.365Z,98027.56
2023-01-18T21:34:06.523Z,98033.56
2023-01-18T21:36:35.647Z,98026.03
2023-01-18T21:39:04.089Z,98021.38
2023-01-18T21:41:49.575Z,98029.38
2023-01-18T21:44:35.099Z,98041.38
2023-01-18T21:47:02.422Z,98052.31
2023-01-18T21:50:15.334Z,98050.25
2023-01-18T21:52:56.036Z,98056.53
2023-01-18T21:55:23.502Z,98054.47
2023-01-18T21:58:10.907Z,98058.66
2023-01-18T22:00:39.953Z,98063.47
2023-01-18T22:03:07.165Z,98064.88
2023-01-18T22:05:34.474Z,98058.03
2023-01-18T22:08:02.107Z,98071.97
2023-01-18T22:10:30.433Z,98067.97
2023-01-18T22:12:57.355Z,98069.91
2023-01-18T22:15:25.450Z,98059.00
2023-01-18T22:17:52.708Z,98071.25
2023-01-18T22:20:20.784Z,98057.44
2023-01-18T22:22:48.704Z,98054.28
2023-01-18T22:25:15.642Z,98059.16
2023-01-18T22:27:50.816Z,98050.41
2023-01-18T22:30:17.871Z,98054.00
2023-01-18T22:32:45.194Z,98059.19
2023-01-18T22:35:12.123Z,98064.75
2023-01-18T22:37:39.066Z,98076.88
2023-01-18T22:40:06.974Z,98088.78
2023-01-18T22:42:35.739Z,98100.16
2023-01-18T22:45:03.021Z,98118.28
2023-01-18T22:47:30.923Z,98130.41
2023-01-18T22:49:59.400Z,98137.47
2023-01-18T22:52:26.879Z,98148.88
2023-01-18T22:54:53.742Z,98155.19
2023-01-18T22:57:24.821Z,98156.16
2023-01-18T22:59:51.752Z,98163.22
2023-01-18T23:02:18.851Z,98170.91
2023-01-18T23:04:48.762Z,98169.34
2023-01-18T23:07:16.464Z,98169.22
2023-01-18T23:09:43.635Z,98173.72
2023-01-18T23:12:12.662Z,98165.28
2023-01-18T23:14:58.111Z,98169.63
2023-01-18T23:17:40.580Z,98165.41
2023-01-18T23:20:09.160Z,98167.22
2023-01-18T23:22:37.576Z,98158.53
2023-01-18T23:25:05.918Z,98164.66
2023-01-18T23:27:33.296Z,98172.41
2023-01-18T23:30:00.282Z,98180.22
2023-01-18T23:32:30.757Z,98168.09
2023-01-18T23:34:58.882Z,98171.56
2023-01-18T23:37:26.867Z,98177.13
2023-01-18T23:40:13.792Z,98180.25
2023-01-18T23:43:00.431Z,98187.47
2023-01-18T23:45:46.272Z,98197.22
2023-01-18T23:48:35.554Z,98197.44
2023-01-18T23:51:21.625Z,98190.66
2023-01-18T23:54:07.459Z,98199.72
2023-01-18T23:56:34.600Z,98202.97
2023-01-18T23:59:02.699Z,98201.16
